createdAt,value
2018-11-02T00:01:44.866Z,74.35
2018-11-02T00:04:13.670Z,74.53
2018-11-02T00:06:42.442Z,74.39
2018-11-02T00:09:11.198Z,73.78
2018-11-02T00:11:39.952Z,74.69
2018-11-02T00:14:08.815Z,74.82
2018-11-02T00:16:37.640Z,74.94
2018-11-02T00:19:06.526Z,74.61
2018-11-02T00:21:35.303Z,74.24
2018-11-02T00:24:05.351Z,73.93
2018-11-02T00:26:34.112Z,74.40
2018-11-02T00:29:03.101Z,73.79
2018-11-02T00:31:31.847Z,74.34
2018-11-02T00:34:00.591Z,74.52
2018-11-02T00:36:29.379Z,73.61
2018-11-02T00:38:58.387Z,74.07
2018-11-02T00:41:27.361Z,74.00
2018-11-02T00:43:56.168Z,74.08
2018-11-02T00:46:25.090Z,74.37
2018-11-02T00:48:54.017Z,74.18
2018-11-02T00:51:22.799Z,74.30
2018-11-02T00:53:51.581Z,73.93
2018-11-02T00:56:20.346Z,74.34
2018-11-02T00:58:49.167Z,73.68
2018-11-02T01:01:17.958Z,74.60
2018-11-02T01:03:46.744Z,74.00
2018-11-02T01:06:15.582Z,74.66
2018-11-02T01:08:44.393Z,74.20
2018-11-02T01:11:13.224Z,74.07
2018-11-02T01:13:42.017Z,74.82
2018-11-02T01:16:10.888Z,74.69
2018-11-02T01:18:39.644Z,75.19
2018-11-02T01:21:08.706Z,74.20
2018-11-02T01:23:37.486Z,74.48
2018-11-02T01:26:06.614Z,74.35
2018-11-02T01:28:35.622Z,73.77
2018-11-02T01:31:04.644Z,73.54
2018-11-02T01:33:37.882Z,74.03
2018-11-02T01:36:08.046Z,75.11
2018-11-02T01:38:37.250Z,75.23
2018-11-02T01:41:06.233Z,75.63
2018-11-02T01:43:35.100Z,75.59
2018-11-02T01:46:03.937Z,75.25
2018-11-02T01:48:34.798Z,75.52
2018-11-02T01:51:03.739Z,75.53
2018-11-02T01:53:32.556Z,75.62
2018-11-02T01:56:01.327Z,75.88
2018-11-02T01:58:30.171Z,76.19
2018-11-02T02:00:59.154Z,76.37
2018-11-02T02:03:28.116Z,76.59
2018-11-02T02:05:56.910Z,77.18
2018-11-02T02:08:25.736Z,77.96
2018-11-02T02:10:54.522Z,77.30
2018-11-02T02:13:23.508Z,77.33
2018-11-02T02:18:20.075Z,77.96
2018-11-02T02:20:48.846Z,77.31
2018-11-02T02:23:17.612Z,77.65
2018-11-02T02:25:46.459Z,77.60
2018-11-02T02:28:15.265Z,77.49
2018-11-02T02:30:44.104Z,77.46
2018-11-02T02:33:12.915Z,78.13
2018-11-02T02:35:41.679Z,77.32
2018-11-02T02:38:10.464Z,77.49
2018-11-02T02:40:39.304Z,77.26
2018-11-02T02:43:08.257Z,76.81
2018-11-02T02:45:37.055Z,77.31
2018-11-02T02:48:06.162Z,78.21
2018-11-02T02:50:34.979Z,77.96
2018-11-02T02:53:04.082Z,78.04
2018-11-02T02:55:32.855Z,77.36
2018-11-02T02:58:01.686Z,77.56
2018-11-02T03:00:30.786Z,77.65
2018-11-02T03:02:59.591Z,77.80
2018-11-02T03:05:28.378Z,77.59
2018-11-02T03:07:57.198Z,77.22
2018-11-02T03:10:26.021Z,77.26
2018-11-02T03:12:55.075Z,77.94
2018-11-02T03:15:23.818Z,77.45
2018-11-02T03:17:52.678Z,77.29
2018-11-02T03:20:21.473Z,77.36
2018-11-02T03:22:50.283Z,77.26
2018-11-02T03:25:19.109Z,77.13
2018-11-02T03:27:47.914Z,78.01
2018-11-02T03:30:17.361Z,77.99
2018-11-02T03:32:46.129Z,77.99
2018-11-02T03:35:15.479Z,78.53
2018-11-02T03:37:44.376Z,78.31
2018-11-02T03:40:13.197Z,78.28
2018-11-02T03:42:42.222Z,78.59
2018-11-02T03:45:11.014Z,78.65
2018-11-02T03:47:39.808Z,79.23
2018-11-02T03:50:10.041Z,79.58
2018-11-02T03:52:39.122Z,79.29
2018-11-02T03:55:09.025Z,79.84
2018-11-02T03:57:37.953Z,79.36
2018-11-02T04:00:10.998Z,80.11
2018-11-02T04:02:40.622Z,79.77
2018-11-02T04:05:10.410Z,80.03
2018-11-02T04:07:39.397Z,80.84
2018-11-02T04:10:09.778Z,80.61
2018-11-02T04:12:39.477Z,81.35
2018-11-02T04:15:08.530Z,80.79
2018-11-02T04:17:37.643Z,80.88
2018-11-02T04:20:07.727Z,81.38
2018-11-02T04:22:36.682Z,81.22
2018-11-02T04:25:05.769Z,81.15
2018-11-02T04:27:34.555Z,81.43
2018-11-02T04:30:06.706Z,80.45
2018-11-02T04:32:35.509Z,80.31
2018-11-02T04:35:04.660Z,80.06
2018-11-02T04:37:33.446Z,80.75
2018-11-02T04:40:02.259Z,80.69
2018-11-02T04:42:31.044Z,80.38
2018-11-02T04:44:59.832Z,80.72
2018-11-02T04:47:28.755Z,81.06
2018-11-02T04:49:57.525Z,80.54
2018-11-02T04:52:26.316Z,80.08
2018-11-02T04:54:55.051Z,80.34
2018-11-02T04:57:23.859Z,80.19
2018-11-02T04:59:53.074Z,80.32
2018-11-02T05:02:21.870Z,80.27
2018-11-02T05:04:50.650Z,80.99
2018-11-02T05:07:19.602Z,80.44
2018-11-02T05:09:48.494Z,80.30
2018-11-02T05:12:17.390Z,80.30
2018-11-02T05:14:46.275Z,80.30
2018-11-02T05:17:15.259Z,81.41
2018-11-02T05:19:44.091Z,81.11
2018-11-02T05:22:12.988Z,80.92
2018-11-02T05:24:41.906Z,82.31
2018-11-02T05:27:10.675Z,81.12
2018-11-02T05:29:39.486Z,81.23
2018-11-02T05:32:38.632Z,82.06
2018-11-02T05:35:07.430Z,81.57
2018-11-02T05:37:36.214Z,81.95
2018-11-02T05:40:06.399Z,81.81
2018-11-02T05:42:35.219Z,81.71
2018-11-02T05:45:05.009Z,80.89
2018-11-02T05:47:33.815Z,81.19
2018-11-02T05:50:02.648Z,80.71
2018-11-02T05:52:31.433Z,81.03
2018-11-02T05:55:00.742Z,81.17
2018-11-02T05:57:29.590Z,80.75
2018-11-02T05:59:59.224Z,80.52
2018-11-02T06:02:28.451Z,80.25
2018-11-02T06:04:57.974Z,80.32
2018-11-02T06:07:26.785Z,81.12
2018-11-02T06:09:55.530Z,80.98
2018-11-02T06:12:24.360Z,80.31
2018-11-02T06:14:56.265Z,79.94
2018-11-02T06:17:25.121Z,80.23
2018-11-02T06:19:53.950Z,80.22
2018-11-02T06:22:22.794Z,80.53
2018-11-02T06:24:51.806Z,80.95
2018-11-02T06:27:20.606Z,80.63
2018-11-02T06:29:49.430Z,80.37
2018-11-02T06:32:18.653Z,79.66
2018-11-02T06:34:48.417Z,79.84
2018-11-02T06:37:17.212Z,78.67
2018-11-02T06:39:46.044Z,78.07
2018-11-02T06:42:14.876Z,77.99
2018-11-02T06:44:43.995Z,78.15
2018-11-02T06:47:13.339Z,77.42
2018-11-02T06:49:42.122Z,77.64
2018-11-02T06:52:11.304Z,77.88
2018-11-02T06:54:40.070Z,78.02
2018-11-02T06:57:09.119Z,76.95
2018-11-02T06:59:38.084Z,77.45
2018-11-02T07:02:07.724Z,77.44
2018-11-02T07:04:36.553Z,76.71
2018-11-02T07:07:05.479Z,76.83
2018-11-02T07:09:34.422Z,77.29
2018-11-02T07:12:03.328Z,77.37
2018-11-02T07:14:32.862Z,77.10
2018-11-02T07:17:01.665Z,77.55
2018-11-02T07:19:30.685Z,77.06
2018-11-02T07:21:59.645Z,76.87
2018-11-02T07:24:28.668Z,76.08
2018-11-02T07:26:57.566Z,75.86
2018-11-02T07:29:26.409Z,74.95
2018-11-02T07:31:55.245Z,74.94
2018-11-02T07:34:24.071Z,75.17
2018-11-02T07:36:53.067Z,74.62
2018-11-02T07:39:21.982Z,73.78
2018-11-02T07:41:51.221Z,73.62
2018-11-02T07:44:20.064Z,72.55
2018-11-02T07:46:49.070Z,72.18
2018-11-02T07:49:18.236Z,71.87
2018-11-02T07:51:47.297Z,72.30
2018-11-02T07:54:16.090Z,71.65
2018-11-02T07:56:45.208Z,71.66
2018-11-02T07:59:14.014Z,71.21
2018-11-02T08:01:42.822Z,70.18
2018-11-02T08:04:11.818Z,70.39
2018-11-02T08:06:44.264Z,70.32
2018-11-02T08:09:14.329Z,69.54
2018-11-02T08:11:43.781Z,68.80
2018-11-02T08:14:12.792Z,68.42
2018-11-02T08:16:41.980Z,68.27
2018-11-02T08:19:10.811Z,68.29
2018-11-02T08:21:39.820Z,68.86
2018-11-02T08:24:08.692Z,68.78
2018-11-02T08:26:37.470Z,67.81
2018-11-02T08:29:06.430Z,68.52
2018-11-02T08:31:35.214Z,69.03
2018-11-02T08:34:04.051Z,69.29
2018-11-02T08:36:32.927Z,69.49
2018-11-02T08:39:01.880Z,68.90
2018-11-02T08:41:30.779Z,69.40
2018-11-02T08:43:59.596Z,69.38
2018-11-02T08:46:28.482Z,68.43
2018-11-02T08:48:57.460Z,68.96
2018-11-02T08:51:26.401Z,68.35
2018-11-02T08:53:55.211Z,67.38
2018-11-02T08:56:24.018Z,67.57
2018-11-02T08:58:53.035Z,66.42
2018-11-02T09:01:22.153Z,66.88
2018-11-02T09:03:50.960Z,67.32
2018-11-02T09:06:19.888Z,66.66
2018-11-02T09:08:48.707Z,66.89
2018-11-02T09:11:17.502Z,66.79
2018-11-02T09:13:47.227Z,66.91
2018-11-02T09:16:16.076Z,67.60
2018-11-02T09:18:44.855Z,67.43
2018-11-02T09:21:13.693Z,67.84
2018-11-02T09:23:42.547Z,66.40
2018-11-02T09:26:11.436Z,67.05
2018-11-02T09:28:40.283Z,66.62
2018-11-02T09:31:09.191Z,66.04
2018-11-02T09:33:37.987Z,66.25
2018-11-02T09:36:06.995Z,65.63
2018-11-02T09:38:35.950Z,65.73
2018-11-02T09:41:04.962Z,65.88
2018-11-02T09:43:34.115Z,66.59
2018-11-02T09:46:03.205Z,65.64
2018-11-02T09:48:32.032Z,65.24
2018-11-02T09:51:01.272Z,64.75
2018-11-02T09:53:30.444Z,65.62
2018-11-02T09:55:59.280Z,64.59
2018-11-02T09:58:28.187Z,64.58
2018-11-02T10:00:57.550Z,64.40
2018-11-02T10:03:26.579Z,64.23
2018-11-02T10:05:55.464Z,63.20
2018-11-02T10:08:24.323Z,63.36
2018-11-02T10:10:53.279Z,63.76
2018-11-02T10:13:22.504Z,62.58
2018-11-02T10:15:51.713Z,62.09
2018-11-02T10:18:20.522Z,61.94
2018-11-02T10:20:49.323Z,61.52
2018-11-02T10:23:19.624Z,60.60
2018-11-02T10:25:48.877Z,60.31
2018-11-02T10:28:17.901Z,58.79
2018-11-02T10:30:47.034Z,59.25
2018-11-02T10:33:16.001Z,58.86
2018-11-02T10:35:44.991Z,56.75
2018-11-02T10:38:13.991Z,57.48
2018-11-02T10:40:46.135Z,57.29
2018-11-02T10:43:17.130Z,56.64
2018-11-02T10:45:47.982Z,56.99
2018-11-02T10:48:16.952Z,56.55
2018-11-02T10:50:45.712Z,56.15
2018-11-02T10:53:14.502Z,55.99
2018-11-02T10:55:43.535Z,55.78
2018-11-02T10:58:12.525Z,55.14
2018-11-02T11:00:46.570Z,55.55
2018-11-02T11:03:15.496Z,54.77
2018-11-02T11:05:44.556Z,54.87
2018-11-02T11:08:13.338Z,54.12
2018-11-02T11:10:42.522Z,53.37
2018-11-02T11:13:11.728Z,52.98
2018-11-02T11:15:40.359Z,52.83
2018-11-02T11:18:09.498Z,52.46
2018-11-02T11:20:38.278Z,53.01
2018-11-02T11:23:07.523Z,52.67
2018-11-02T11:25:36.313Z,51.48
2018-11-02T11:28:06.049Z,51.16
2018-11-02T11:30:34.890Z,51.11
2018-11-02T11:33:03.734Z,52.14
2018-11-02T11:35:32.528Z,51.67
2018-11-02T11:38:01.348Z,52.46
2018-11-02T11:40:30.425Z,52.36
2018-11-02T11:42:59.223Z,50.89
2018-11-02T11:45:28.073Z,51.00
2018-11-02T11:47:57.075Z,51.44
2018-11-02T11:50:26.182Z,50.23
2018-11-02T11:52:55.524Z,50.58
2018-11-02T11:55:24.372Z,50.06
2018-11-02T11:57:53.192Z,48.88
2018-11-02T12:00:23.255Z,48.39
2018-11-02T12:02:52.754Z,48.22
2018-11-02T12:05:22.791Z,48.08
2018-11-02T12:07:51.691Z,47.13
2018-11-02T12:10:24.689Z,45.79
2018-11-02T12:12:54.115Z,45.83
2018-11-02T12:15:23.802Z,45.72
2018-11-02T12:17:52.711Z,46.17
2018-11-02T12:20:24.906Z,45.60
2018-11-02T12:22:55.635Z,45.69
2018-11-02T12:25:24.859Z,45.46
2018-11-02T12:27:53.759Z,45.31
2018-11-02T12:30:22.706Z,46.14
2018-11-02T12:32:51.482Z,46.49
2018-11-02T12:35:20.718Z,45.75
2018-11-02T12:37:49.546Z,46.10
2018-11-02T12:40:19.511Z,46.41
2018-11-02T12:42:49.384Z,46.47
2018-11-02T12:45:19.469Z,46.56
2018-11-02T12:47:48.587Z,46.75
2018-11-02T12:50:25.002Z,46.69
2018-11-02T12:52:55.098Z,46.79
2018-11-02T12:55:24.134Z,46.21
2018-11-02T12:57:53.154Z,46.93
2018-11-02T13:00:24.285Z,46.62
2018-11-02T13:02:53.757Z,46.45
2018-11-02T13:05:22.951Z,45.12
2018-11-02T13:07:51.945Z,45.33
2018-11-02T13:10:21.792Z,45.14
2018-11-02T13:12:50.820Z,45.77
2018-11-02T13:15:20.891Z,44.94
2018-11-02T13:17:50.371Z,44.98
2018-11-02T13:20:19.201Z,45.63
2018-11-02T13:22:49.083Z,44.88
2018-11-02T13:25:20.079Z,46.39
2018-11-02T13:27:49.953Z,46.18
2018-11-02T13:30:18.935Z,46.46
2018-11-02T13:32:47.780Z,45.70
2018-11-02T13:35:17.759Z,46.25
2018-11-02T13:37:47.356Z,45.52
2018-11-02T13:40:17.167Z,45.18
2018-11-02T13:42:46.052Z,44.24
2018-11-02T13:45:16.266Z,43.76
2018-11-02T13:47:45.642Z,44.15
2018-11-02T13:50:14.719Z,44.38
2018-11-02T13:52:44.134Z,45.04
2018-11-02T13:55:13.526Z,44.79
2018-11-02T13:57:42.878Z,44.88
2018-11-02T14:00:13.482Z,44.96
2018-11-02T14:02:42.451Z,44.58
2018-11-02T14:05:12.806Z,45.35
2018-11-02T14:07:41.990Z,45.23
2018-11-02T14:10:11.492Z,44.29
2018-11-02T14:12:40.764Z,45.12
2018-11-02T14:15:11.658Z,44.82
2018-11-02T14:17:41.154Z,44.81
2018-11-02T14:20:12.027Z,44.88
2018-11-02T14:22:41.059Z,45.09
2018-11-02T14:25:12.540Z,44.67
2018-11-02T14:27:41.542Z,45.29
2018-11-02T14:30:12.391Z,45.21
2018-11-02T14:32:41.166Z,45.06
2018-11-02T14:35:09.980Z,44.26
2018-11-02T14:37:38.963Z,44.35
2018-11-02T14:40:09.113Z,45.37
2018-11-02T14:42:38.930Z,44.59
2018-11-02T14:45:10.102Z,45.10
2018-11-02T14:47:38.897Z,45.50
2018-11-02T14:50:09.098Z,45.50
2018-11-02T14:52:38.137Z,44.93
2018-11-02T14:55:07.728Z,45.18
2018-11-02T14:57:36.547Z,45.00
2018-11-02T15:00:10.356Z,45.54
2018-11-02T15:02:39.507Z,45.11
2018-11-02T15:05:10.202Z,45.28
2018-11-02T15:07:39.181Z,45.93
2018-11-02T15:10:08.201Z,45.24
2018-11-02T15:12:37.294Z,46.06
2018-11-02T15:15:06.923Z,46.42
2018-11-02T15:17:35.686Z,47.15
2018-11-02T15:20:05.311Z,47.21
2018-11-02T15:22:34.158Z,47.27
2018-11-02T15:25:02.969Z,47.02
2018-11-02T15:27:31.746Z,47.56
2018-11-02T15:30:00.884Z,47.72
2018-11-02T15:32:29.710Z,47.32
2018-11-02T15:34:58.503Z,46.79
2018-11-02T15:37:27.270Z,46.67
2018-11-02T15:39:56.248Z,46.49
2018-11-02T15:42:25.071Z,47.00
2018-11-02T15:44:53.879Z,45.98
2018-11-02T15:47:23.023Z,45.94
2018-11-02T15:49:51.787Z,45.63
2018-11-02T15:52:20.561Z,45.52
2018-11-02T15:54:49.812Z,46.66
2018-11-02T15:57:18.648Z,45.88
2018-11-02T15:59:47.394Z,47.03
2018-11-02T16:02:16.331Z,46.66
2018-11-02T16:04:45.115Z,46.63
2018-11-02T16:07:13.858Z,46.93
2018-11-02T16:09:42.638Z,47.80
2018-11-02T16:12:11.383Z,48.28
2018-11-02T16:14:40.487Z,47.60
2018-11-02T16:17:09.272Z,48.53
2018-11-02T16:19:38.997Z,48.41
2018-11-02T16:22:07.907Z,48.40
2018-11-02T16:24:36.683Z,48.75
2018-11-02T16:27:05.519Z,48.33
2018-11-02T16:29:34.342Z,47.64
2018-11-02T16:32:03.192Z,47.53
2018-11-02T16:34:32.118Z,46.80
2018-11-02T16:37:00.874Z,45.65
2018-11-02T16:39:29.654Z,44.86
2018-11-02T16:41:58.461Z,44.30
2018-11-02T16:44:27.254Z,43.12
2018-11-02T16:46:56.410Z,43.50
2018-11-02T16:49:25.226Z,42.53
2018-11-02T16:51:54.056Z,41.94
2018-11-02T16:54:22.955Z,41.79
2018-11-02T16:56:51.900Z,41.69
2018-11-02T16:59:20.697Z,41.18
2018-11-02T17:01:49.768Z,40.84
2018-11-02T17:04:18.581Z,41.47
2018-11-02T17:06:47.701Z,42.07
2018-11-02T17:09:16.502Z,43.15
2018-11-02T17:11:45.437Z,43.26
2018-11-02T17:14:14.330Z,43.71
2018-11-02T17:16:43.278Z,44.83
2018-11-02T17:19:12.046Z,46.24
2018-11-02T17:21:40.909Z,48.47
2018-11-02T17:24:09.874Z,50.54
2018-11-02T17:26:38.645Z,52.08
2018-11-02T17:29:07.631Z,55.37
2018-11-02T17:31:36.459Z,56.06
2018-11-02T17:34:05.618Z,56.52
2018-11-02T17:36:34.451Z,56.25
2018-11-02T17:39:03.887Z,57.25
2018-11-02T17:41:32.743Z,58.05
2018-11-02T17:44:01.610Z,57.19
2018-11-02T17:46:30.443Z,57.56
2018-11-02T17:48:59.270Z,58.24
2018-11-02T17:51:28.317Z,58.67
2018-11-02T17:53:57.251Z,58.60
2018-11-02T17:56:26.120Z,58.57
2018-11-02T17:58:54.871Z,59.15
2018-11-02T18:01:23.695Z,58.62
2018-11-02T18:03:52.747Z,59.22
2018-11-02T18:06:21.543Z,59.22
2018-11-02T18:08:50.360Z,59.13
2018-11-02T18:11:19.426Z,60.28
2018-11-02T18:13:48.311Z,60.36
2018-11-02T18:16:17.083Z,60.35
2018-11-02T18:18:45.904Z,60.42
2018-11-02T18:21:15.561Z,60.52
2018-11-02T18:23:44.403Z,60.71
2018-11-02T18:26:13.255Z,60.77
2018-11-02T18:28:42.376Z,60.47
2018-11-02T18:31:11.227Z,60.80
2018-11-02T18:33:40.070Z,60.71
2018-11-02T18:36:08.888Z,60.48
2018-11-02T18:38:37.645Z,61.07
2018-11-02T18:41:06.485Z,61.14
2018-11-02T18:43:35.237Z,60.97
2018-11-02T18:46:04.157Z,61.99
2018-11-02T18:48:32.882Z,61.80
2018-11-02T18:51:01.630Z,61.32
2018-11-02T18:53:30.598Z,61.73
2018-11-02T18:55:59.438Z,61.55
2018-11-02T18:58:29.145Z,61.55
2018-11-02T19:00:57.923Z,61.60
2018-11-02T19:03:26.757Z,61.77
2018-11-02T19:05:55.552Z,62.89
2018-11-02T19:08:24.339Z,62.39
2018-11-02T19:10:53.145Z,62.05
2018-11-02T19:13:21.943Z,61.12
2018-11-02T19:15:50.992Z,61.93
2018-11-02T19:18:19.870Z,62.60
2018-11-02T19:20:48.844Z,62.33
2018-11-02T19:23:17.896Z,63.04
2018-11-02T19:25:46.848Z,63.96
2018-11-02T19:28:15.642Z,63.47
2018-11-02T19:30:44.550Z,63.90
2018-11-02T19:33:13.324Z,64.12
2018-11-02T19:35:42.407Z,63.90
2018-11-02T19:38:11.607Z,64.98
2018-11-02T19:40:40.357Z,64.75
2018-11-02T19:43:09.154Z,64.92
2018-11-02T19:45:37.930Z,65.62
2018-11-02T19:48:07.321Z,65.45
2018-11-02T19:50:36.121Z,65.98
2018-11-02T19:53:05.197Z,65.79
2018-11-02T19:55:34.071Z,66.17
2018-11-02T19:58:02.937Z,66.92
2018-11-02T20:00:31.762Z,67.16
2018-11-02T20:03:00.531Z,66.75
2018-11-02T20:05:29.372Z,67.43
2018-11-02T20:07:58.306Z,67.77
2018-11-02T20:10:27.144Z,67.54
2018-11-02T20:12:55.991Z,68.50
2018-11-02T20:15:24.814Z,68.58
2018-11-02T20:17:53.689Z,67.91
2018-11-02T20:20:22.618Z,68.24
2018-11-02T20:22:51.401Z,68.31
2018-11-02T20:25:20.219Z,68.82
2018-11-02T20:27:48.971Z,68.45
2018-11-02T20:30:19.167Z,69.41
2018-11-02T20:32:48.145Z,69.17
2018-11-02T20:35:16.945Z,69.11
2018-11-02T20:37:45.926Z,70.09
2018-11-02T20:40:16.800Z,70.60
2018-11-02T20:42:46.003Z,70.37
2018-11-02T20:45:15.198Z,71.05
2018-11-02T20:47:47.154Z,71.27
2018-11-02T20:50:16.074Z,71.08
2018-11-02T20:52:44.890Z,71.08
2018-11-02T20:55:14.310Z,71.49
2018-11-02T20:57:43.455Z,71.36
2018-11-02T21:00:19.927Z,71.58
2018-11-02T21:02:49.005Z,71.55
2018-11-02T21:05:19.070Z,72.07
2018-11-02T21:07:48.569Z,71.68
2018-11-02T21:10:18.746Z,72.76
2018-11-02T21:12:48.039Z,72.33
2018-11-02T21:15:18.790Z,73.13
2018-11-02T21:17:47.795Z,72.79
2018-11-02T21:20:19.870Z,73.02
2018-11-02T21:22:52.235Z,72.73
2018-11-02T21:25:21.057Z,73.12
2018-11-02T21:27:49.983Z,73.11
2018-11-02T21:30:23.266Z,73.24
2018-11-02T21:32:52.954Z,73.64
2018-11-02T21:35:22.789Z,73.69
2018-11-02T21:37:52.022Z,74.17
2018-11-02T21:40:22.963Z,73.96
2018-11-02T21:42:51.739Z,73.53
2018-11-02T21:45:21.963Z,73.56
2018-11-02T21:47:50.868Z,73.57
2018-11-02T21:50:19.823Z,73.90
2018-11-02T21:52:48.669Z,73.78
2018-11-02T21:55:17.449Z,73.01
2018-11-02T21:57:46.406Z,73.33
2018-11-02T22:00:18.859Z,72.97
2018-11-02T22:02:48.275Z,72.70
2018-11-02T22:05:17.066Z,73.47
2018-11-02T22:07:47.325Z,73.32
2018-11-02T22:10:16.739Z,73.09
2018-11-02T22:12:45.752Z,74.25
2018-11-02T22:15:14.710Z,75.00
2018-11-02T22:17:43.491Z,74.97
2018-11-02T22:20:13.542Z,75.10
2018-11-02T22:22:42.445Z,74.61
2018-11-02T22:25:12.913Z,75.22
2018-11-02T22:27:41.675Z,76.33
2018-11-02T22:30:13.088Z,76.17
2018-11-02T22:32:41.938Z,76.23
2018-11-02T22:35:11.790Z,76.58
2018-11-02T22:37:40.813Z,76.37
2018-11-02T22:40:11.591Z,77.19
2018-11-02T22:42:40.939Z,77.34
2018-11-02T22:45:10.743Z,76.75
2018-11-02T22:47:39.547Z,77.33
2018-11-02T22:50:09.121Z,77.26
2018-11-02T22:52:38.038Z,76.88
2018-11-02T22:55:08.078Z,76.05
2018-11-02T22:57:36.915Z,76.04
2018-11-02T23:00:13.955Z,75.28
2018-11-02T23:02:43.079Z,75.12
2018-11-02T23:05:12.088Z,74.54
2018-11-02T23:07:40.973Z,75.06
2018-11-02T23:10:10.370Z,74.59
2018-11-02T23:12:40.016Z,75.02
2018-11-02T23:15:09.501Z,74.57
2018-11-02T23:17:38.619Z,74.67
2018-11-02T23:20:10.443Z,73.92
2018-11-02T23:22:39.261Z,73.85
2018-11-02T23:25:09.753Z,74.48
2018-11-02T23:27:38.643Z,73.76
2018-11-02T23:30:10.129Z,74.33
2018-11-02T23:32:39.017Z,74.38
2018-11-02T23:35:08.315Z,74.49
2018-11-02T23:37:37.474Z,74.81
2018-11-02T23:40:07.107Z,75.01
2018-11-02T23:42:36.126Z,75.14
2018-11-02T23:45:06.318Z,75.81
2018-11-02T23:47:35.213Z,75.54
2018-11-02T23:50:04.459Z,76.02
2018-11-02T23:52:33.231Z,76.02
2018-11-02T23:55:02.071Z,76.51
2018-11-02T23:57:30.870Z,75.70
2018-11-02T23:59:59.650Z,76.55
